createdAt,value
2022-09-18T00:02:54.415Z,10.13
2022-09-18T00:08:20.520Z,11.02
2022-09-18T00:13:45.139Z,12.88
2022-09-18T00:19:10.266Z,14.55
2022-09-18T00:24:35.412Z,14.23
2022-09-18T00:29:59.591Z,14.32
2022-09-18T00:35:24.475Z,12.80
2022-09-18T00:40:50.405Z,13.25
2022-09-18T00:46:25.218Z,12.50
2022-09-18T00:51:53.849Z,12.15
2022-09-18T00:57:23.382Z,16.17
2022-09-18T01:02:48.647Z,10.98
2022-09-18T01:08:28.745Z,10.77
2022-09-18T01:14:08.893Z,10.55
2022-09-18T01:19:58.119Z,10.50
2022-09-18T01:25:34.329Z,10.50
2022-09-18T01:31:04.384Z,9.82
2022-09-18T01:36:31.397Z,10.50
2022-09-18T01:42:01.480Z,10.57
2022-09-18T01:47:36.821Z,10.65
2022-09-18T01:53:08.039Z,10.27
2022-09-18T01:58:35.413Z,10.18
2022-09-18T02:04:07.409Z,10.45
2022-09-18T02:09:35.082Z,9.68
2022-09-18T02:15:03.717Z,10.35
2022-09-18T02:20:38.995Z,10.13
2022-09-18T02:26:07.236Z,10.52
2022-09-18T02:31:34.147Z,11.40
2022-09-18T02:37:12.292Z,11.07
2022-09-18T02:42:43.416Z,11.98
2022-09-18T02:48:23.222Z,10.80
2022-09-18T02:53:58.273Z,10.65
2022-09-18T02:59:27.344Z,10.25
2022-09-18T03:04:53.796Z,10.02
2022-09-18T03:10:32.758Z,8.93
2022-09-18T03:15:57.227Z,10.13
2022-09-18T03:21:22.606Z,8.88
2022-09-18T03:26:49.680Z,9.57
2022-09-18T03:32:13.692Z,10.60
2022-09-18T03:37:46.862Z,10.05
2022-09-18T03:43:16.062Z,11.07
2022-09-18T03:48:40.161Z,11.32
2022-09-18T03:54:04.783Z,12.13
2022-09-18T03:59:49.157Z,11.50
2022-09-18T04:05:33.314Z,13.02
2022-09-18T04:11:16.027Z,12.93
2022-09-18T04:16:43.303Z,11.80
2022-09-18T04:22:07.620Z,12.10
2022-09-18T04:27:37.146Z,12.05
2022-09-18T04:33:03.179Z,13.95
2022-09-18T04:38:28.601Z,17.10
2022-09-18T04:43:53.654Z,15.95
2022-09-18T04:49:19.324Z,14.88
2022-09-18T04:54:43.396Z,12.82
2022-09-18T05:00:09.324Z,13.75
2022-09-18T05:05:36.216Z,14.65
2022-09-18T05:11:04.520Z,12.95
2022-09-18T05:16:31.845Z,10.40
2022-09-18T05:22:16.727Z,10.38
2022-09-18T05:27:44.750Z,10.50
2022-09-18T05:33:11.075Z,11.80
2022-09-18T05:38:38.640Z,10.18
2022-09-18T05:44:06.133Z,10.50
2022-09-18T05:49:31.005Z,10.38
2022-09-18T05:54:56.028Z,10.40
2022-09-18T06:00:20.025Z,9.05
2022-09-18T06:05:52.095Z,9.40
2022-09-18T06:11:18.077Z,7.97
2022-09-18T06:16:42.591Z,7.18
2022-09-18T06:22:11.170Z,6.95
2022-09-18T06:27:36.985Z,8.30
2022-09-18T06:33:02.865Z,7.00
2022-09-18T06:38:26.860Z,5.88
2022-09-18T06:43:52.855Z,5.50
2022-09-18T06:49:28.726Z,4.80
2022-09-18T06:54:53.673Z,5.28
2022-09-18T07:00:29.267Z,4.63
2022-09-18T07:05:53.428Z,3.78
2022-09-18T07:11:33.062Z,3.70
2022-09-18T07:17:00.347Z,3.42
2022-09-18T07:22:26.708Z,3.90
2022-09-18T07:27:50.929Z,3.13
2022-09-18T07:33:18.754Z,3.60
2022-09-18T07:38:45.148Z,3.25
2022-09-18T07:44:09.470Z,2.60
2022-09-18T07:49:39.075Z,2.70
2022-09-18T07:55:06.745Z,2.60
2022-09-18T08:00:34.909Z,2.55
2022-09-18T08:06:00.420Z,2.78
2022-09-18T08:11:25.481Z,2.70
2022-09-18T08:17:26.840Z,2.47
2022-09-18T08:23:09.952Z,2.30
2022-09-18T08:28:36.556Z,2.28
2022-09-18T08:34:02.407Z,2.45
2022-09-18T08:39:30.125Z,1.92
2022-09-18T08:45:36.097Z,2.15
2022-09-18T08:51:05.979Z,1.90
2022-09-18T08:56:31.941Z,2.10
2022-09-18T09:02:39.769Z,1.42
2022-09-18T09:08:38.144Z,1.60
2022-09-18T09:19:38.563Z,1.40
2022-09-18T09:25:13.308Z,1.70
2022-09-18T09:30:59.571Z,1.80
2022-09-18T09:37:03.439Z,1.30
2022-09-18T09:42:32.607Z,1.38
2022-09-18T09:48:09.143Z,1.88
2022-09-18T09:53:37.790Z,1.60
2022-09-18T09:59:12.584Z,1.52
2022-09-18T10:05:02.422Z,1.67
2022-09-18T10:10:34.672Z,1.52
2022-09-18T10:16:04.233Z,1.20
2022-09-18T10:21:35.242Z,1.02
2022-09-18T10:27:08.282Z,1.40
2022-09-18T10:32:36.446Z,1.10
2022-09-18T10:38:28.087Z,1.55
2022-09-18T10:44:05.039Z,1.70
2022-09-18T10:49:32.225Z,1.63
2022-09-18T10:55:03.429Z,1.83
2022-09-18T11:00:39.335Z,1.00
2022-09-18T11:06:10.292Z,1.30
2022-09-18T11:11:38.214Z,1.08
2022-09-18T11:17:16.778Z,1.63
2022-09-18T11:22:44.349Z,1.40
2022-09-18T11:28:31.550Z,0.88
2022-09-18T11:34:03.011Z,1.30
2022-09-18T11:39:40.854Z,1.40
2022-09-18T11:45:22.484Z,1.38
2022-09-18T11:50:47.921Z,1.33
2022-09-18T11:56:16.768Z,1.75
2022-09-18T12:01:47.521Z,1.30
2022-09-18T12:07:38.074Z,1.45
2022-09-18T12:13:20.867Z,1.45
2022-09-18T12:19:00.150Z,1.63
2022-09-18T12:24:25.751Z,1.63
2022-09-18T12:30:04.944Z,1.45
2022-09-18T12:35:43.814Z,1.38
2022-09-18T12:41:18.171Z,1.40
2022-09-18T12:46:56.905Z,1.50
2022-09-18T12:52:40.839Z,0.98
2022-09-18T12:58:36.301Z,1.10
2022-09-18T13:04:07.349Z,1.10
2022-09-18T13:09:39.853Z,1.15
2022-09-18T13:15:12.018Z,1.60
2022-09-18T13:20:41.297Z,1.27
2022-09-18T13:26:11.652Z,1.27
2022-09-18T13:31:37.809Z,1.00
2022-09-18T13:37:07.494Z,1.08
2022-09-18T13:42:35.277Z,1.38
2022-09-18T13:48:06.455Z,1.73
2022-09-18T13:53:42.834Z,1.30
2022-09-18T14:05:20.547Z,1.20
2022-09-18T14:11:16.748Z,0.93
2022-09-18T14:16:44.789Z,1.05
2022-09-18T14:22:24.676Z,0.95
2022-09-18T14:27:57.100Z,1.40
2022-09-18T14:33:23.851Z,0.95
2022-09-18T14:38:49.843Z,1.15
2022-09-18T14:44:17.539Z,1.25
2022-09-18T14:49:48.314Z,1.65
2022-09-18T14:55:20.148Z,1.65
2022-09-18T15:00:45.111Z,1.35
2022-09-18T15:06:17.820Z,1.33
2022-09-18T15:12:01.462Z,1.10
2022-09-18T15:17:28.301Z,1.50
2022-09-18T15:22:56.803Z,1.47
2022-09-18T15:28:27.012Z,1.60
2022-09-18T15:33:55.566Z,1.95
2022-09-18T15:39:30.877Z,1.10
2022-09-18T15:45:15.440Z,1.05
2022-09-18T15:50:42.038Z,1.25
2022-09-18T15:56:21.128Z,1.40
2022-09-18T16:01:48.965Z,1.00
2022-09-18T16:07:20.816Z,1.23
2022-09-18T16:12:47.282Z,1.00
2022-09-18T16:18:27.120Z,0.90
2022-09-18T16:29:21.169Z,1.20
2022-09-18T16:34:46.744Z,1.10
2022-09-18T16:40:18.566Z,1.40
2022-09-18T16:45:44.643Z,1.83
2022-09-18T16:51:10.011Z,1.20
2022-09-18T16:56:43.293Z,2.15
2022-09-18T17:02:10.223Z,2.17
2022-09-18T17:07:35.707Z,1.75
2022-09-18T17:12:59.559Z,1.60
2022-09-18T17:18:25.056Z,1.65
2022-09-18T17:23:49.624Z,1.30
2022-09-18T17:29:14.133Z,1.50
2022-09-18T17:34:39.549Z,1.35
2022-09-18T17:40:06.165Z,1.20
2022-09-18T17:45:30.060Z,1.52
2022-09-18T17:50:59.332Z,1.38
2022-09-18T17:56:29.764Z,1.10
2022-09-18T18:01:54.142Z,1.52
2022-09-18T18:07:20.220Z,1.00
2022-09-18T18:12:44.184Z,2.30
2022-09-18T18:18:08.318Z,1.95
2022-09-18T18:23:34.431Z,0.60
2022-09-18T18:28:58.962Z,0.30
2022-09-18T18:34:25.317Z,0.30
2022-09-18T18:39:53.609Z,0.57
2022-09-18T18:45:17.832Z,0.38
2022-09-18T18:50:42.987Z,0.52
2022-09-18T18:56:11.039Z,0.50
2022-09-18T19:01:36.183Z,0.55
2022-09-18T19:07:01.440Z,1.50
2022-09-18T19:12:27.712Z,0.60
2022-09-18T19:17:59.237Z,0.30
2022-09-18T19:23:23.731Z,0.35
2022-09-18T19:28:54.733Z,1.38
2022-09-18T19:34:22.020Z,0.82
2022-09-18T19:39:48.982Z,0.93
2022-09-18T19:45:21.990Z,0.40
2022-09-18T19:50:47.293Z,0.88
2022-09-18T19:56:27.598Z,2.15
2022-09-18T20:01:58.029Z,1.85
2022-09-18T20:07:23.101Z,1.20
2022-09-18T20:12:48.616Z,0.55
2022-09-18T20:18:15.651Z,0.30
2022-09-18T20:23:39.549Z,0.30
2022-09-18T20:29:04.917Z,0.25
2022-09-18T20:34:30.147Z,0.60
2022-09-18T20:39:54.949Z,0.60
2022-09-18T20:45:19.841Z,0.65
2022-09-18T20:50:46.516Z,1.48
2022-09-18T20:56:13.147Z,0.60
2022-09-18T21:01:37.986Z,0.60
2022-09-18T21:07:03.880Z,0.60
2022-09-18T21:12:31.897Z,0.30
2022-09-18T21:17:57.393Z,0.20
2022-09-18T21:23:40.440Z,0.20
2022-09-18T21:29:08.496Z,0.35
2022-09-18T21:34:33.944Z,0.20
2022-09-18T21:39:59.884Z,0.28
2022-09-18T21:45:24.292Z,0.30
2022-09-18T21:50:48.739Z,0.20
2022-09-18T21:56:16.911Z,0.30
2022-09-18T22:01:42.885Z,0.20
2022-09-18T22:07:07.933Z,0.30
2022-09-18T22:12:34.101Z,0.35
2022-09-18T22:17:58.810Z,0.22
2022-09-18T22:23:24.672Z,0.55
2022-09-18T22:28:53.622Z,0.40
2022-09-18T22:34:20.295Z,0.20
2022-09-18T22:39:45.603Z,0.20
2022-09-18T22:45:12.415Z,0.30
2022-09-18T22:50:37.178Z,0.30
2022-09-18T22:56:03.463Z,0.22
2022-09-18T23:01:32.828Z,0.20
2022-09-18T23:07:00.120Z,0.50
2022-09-18T23:12:24.928Z,0.25
2022-09-18T23:17:52.575Z,0.30
2022-09-18T23:23:20.723Z,0.47
2022-09-18T23:28:47.295Z,0.57
2022-09-18T23:34:16.927Z,0.40
2022-09-18T23:39:41.699Z,0.30
2022-09-18T23:45:06.821Z,0.30
2022-09-18T23:50:34.444Z,0.30
2022-09-18T23:56:03.334Z,0.30
